METAR Data
IDs: Format: Raw Decoded Include TAF

Data at: 0252 UTC 27 Jan 2021

PAGK 270153Z AUTO 00000KT 10SM CLR M21/M22 A3014 RMK AO2 SLP284 T12061222 TSNO